Time;durP1;ratioP1;P1;durP2;ratioP2;P2;SDS_P1;SDS_P2;PMS_P1;PMS_P2;Temp;Humidity;BMP_temperature;BMP_pressure;BME280_temperature;BME280_humidity;BME280_pressure;Samples;Min_cycle;Max_cycle;Signal;HPM_P1;HPM_P2
2021/06/25 00:01:11;;;;;;;5.95;3.25;;;17.40;85.60;;;;;;6276001;22;20311;-79
2021/06/25 00:03:39;;;;;;;5.85;2.90;;;17.40;85.40;;;;;;6282774;22;20023;-78
2021/06/25 00:06:21;;;;;;;7.18;3.17;;;17.40;85.40;;;;;;6258758;22;20027;-78
2021/06/25 00:08:53;;;;;;;6.65;2.65;;;17.40;85.40;;;;;;6286085;22;20211;-78
2021/06/25 00:11:20;;;;;;;4.80;2.40;;;17.40;85.20;;;;;;6284602;22;20026;-79
2021/06/25 00:13:48;;;;;;;5.65;2.55;;;17.30;85.20;;;;;;6280751;22;20015;-78
2021/06/25 00:16:15;;;;;;;11.63;2.78;;;17.20;86.00;;;;;;6285129;22;20145;-79
2021/06/25 00:18:43;;;;;;;5.60;2.55;;;17.10;86.10;;;;;;6285628;22;20022;-79
2021/06/25 00:21:10;;;;;;;3.85;2.10;;;17.10;86.40;;;;;;6285015;22;20024;-79
2021/06/25 00:23:38;;;;;;;4.65;2.50;;;17.10;86.20;;;;;;6285591;22;20016;-79
2021/06/25 00:26:06;;;;;;;6.53;2.47;;;17.10;86.20;;;;;;6283945;22;20015;-78
2021/06/25 00:28:39;;;;;;;5.57;2.95;;;17.10;86.60;;;;;;6282957;22;20030;-78
2021/06/25 00:31:06;;;;;;;6.97;2.72;;;17.20;86.20;;;;;;6281940;22;20015;-78
2021/06/25 00:33:33;;;;;;;7.05;3.03;;;17.00;87.20;;;;;;6278124;22;20026;-78
2021/06/25 00:36:01;;;;;;;5.25;2.85;;;16.90;87.20;;;;;;6249253;22;20027;-78
2021/06/25 00:38:28;;;;;;;6.20;2.40;;;16.90;87.30;;;;;;6277229;22;20070;-78
2021/06/25 00:40:57;;;;;;;7.70;3.15;;;16.90;86.90;;;;;;6276502;22;20196;-79
2021/06/25 00:43:25;;;;;;;5.82;2.90;;;16.70;87.70;;;;;;6272105;22;20240;-78
2021/06/25 00:45:52;;;;;;;6.38;2.67;;;16.90;87.60;;;;;;6251523;22;20249;-78
2021/06/25 00:48:19;;;;;;;5.60;2.83;;;16.80;87.20;;;;;;6279668;22;20319;-78
2021/06/25 00:50:47;;;;;;;5.38;2.70;;;16.90;87.10;;;;;;6278917;22;20030;-78
2021/06/25 00:53:14;;;;;;;7.28;2.83;;;16.90;87.20;;;;;;6251499;22;20023;-78
2021/06/25 00:55:45;;;;;;;6.13;3.10;;;16.90;87.10;;;;;;6280962;22;20030;-78
2021/06/25 00:58:14;;;;;;;;;;;16.90;87.10;;;;;;6279237;22;20024;-78
2021/06/25 01:00:42;;;;;;;5.13;2.80;;;16.90;86.70;;;;;;6248969;22;19938;-79
2021/06/25 01:03:09;;;;;;;8.85;2.97;;;16.90;87.00;;;;;;6279619;22;20031;-78
2021/06/25 01:05:37;;;;;;;5.50;2.60;;;16.80;87.10;;;;;;6278937;22;20211;-78
2021/06/25 01:08:05;;;;;;;6.75;2.63;;;16.80;87.20;;;;;;6281091;22;20075;-78
2021/06/25 01:10:32;;;;;;;9.13;3.22;;;16.80;87.30;;;;;;6251802;22;20027;-78
2021/06/25 01:13:01;;;;;;;8.13;3.15;;;16.80;87.20;;;;;;6280086;22;20011;-78
2021/06/25 01:15:30;;;;;;;5.10;2.88;;;16.80;87.30;;;;;;6254988;22;20028;-78
2021/06/25 01:17:57;;;;;;;7.85;3.22;;;16.90;87.00;;;;;;6275132;22;20028;-79
2021/06/25 01:20:26;;;;;;;6.93;2.42;;;16.80;86.70;;;;;;6255311;22;20027;-79
2021/06/25 01:22:57;;;;;;;4.65;3.03;;;16.70;87.50;;;;;;6254690;22;20015;-79
2021/06/25 01:25:26;;;;;;;6.78;3.25;;;16.60;87.90;;;;;;6281219;22;20035;-77
2021/06/25 01:27:55;;;;;;;11.48;3.63;;;16.60;88.20;;;;;;6281274;22;20075;-78
2021/06/25 01:30:24;;;;;;;6.45;2.88;;;16.60;88.10;;;;;;6251753;22;20226;-78
2021/06/25 01:32:52;;;;;;;5.53;3.20;;;16.60;88.20;;;;;;6279102;22;20020;-78
2021/06/25 01:35:19;;;;;;;6.55;2.95;;;16.60;88.40;;;;;;6281563;22;20007;-79
2021/06/25 01:37:47;;;;;;;6.35;3.00;;;16.60;88.20;;;;;;6253035;22;20043;-78
2021/06/25 01:40:18;;;;;;;6.60;3.45;;;16.70;88.10;;;;;;6250733;22;20267;-79
2021/06/25 01:42:47;;;;;;;10.38;3.33;;;16.70;88.10;;;;;;6277716;22;20311;-78
2021/06/25 01:45:18;;;;;;;7.00;3.17;;;16.70;88.00;;;;;;6277159;22;20070;-78
2021/06/25 01:47:45;;;;;;;;;;;16.60;88.00;;;;;;6281119;22;20024;-78
2021/06/25 01:50:15;;;;;;;5.70;2.70;;;16.70;88.00;;;;;;6257357;22;19919;-78
2021/06/25 01:52:44;;;;;;;5.53;2.97;;;16.70;87.90;;;;;;6278161;22;20031;-78
2021/06/25 01:55:11;;;;;;;8.65;3.30;;;16.60;88.30;;;;;;6284105;22;20036;-78
2021/06/25 01:57:40;;;;;;;8.27;3.20;;;16.70;87.80;;;;;;6279334;22;20236;-78
2021/06/25 02:00:09;;;;;;;7.30;3.25;;;16.70;87.90;;;;;;6275313;22;20023;-78
2021/06/25 02:02:37;;;;;;;5.60;3.20;;;16.70;87.40;;;;;;6253177;22;20050;-78
2021/06/25 02:05:05;;;;;;;5.80;2.75;;;16.60;87.80;;;;;;6253397;22;20038;-78
2021/06/25 02:07:32;;;;;;;4.75;2.47;;;16.60;87.90;;;;;;6281944;22;20016;-79
2021/06/25 02:09:59;;;;;;;8.75;3.08;;;16.60;87.80;;;;;;6283384;22;20126;-78
2021/06/25 02:12:27;;;;;;;5.15;2.83;;;16.60;87.70;;;;;;6252789;22;20028;-78
2021/06/25 02:14:56;;;;;;;5.32;2.40;;;16.40;87.70;;;;;;6280965;22;20341;-78
2021/06/25 02:17:23;;;;;;;4.45;2.75;;;16.50;87.80;;;;;;6278639;22;20023;-78
2021/06/25 02:19:51;;;;;;;6.50;3.33;;;16.50;87.80;;;;;;6278576;22;20020;-78
2021/06/25 02:22:18;;;;;;;10.15;2.97;;;16.50;87.70;;;;;;6279513;22;20226;-78
2021/06/25 02:24:45;;;;;;;6.82;3.10;;;16.40;87.80;;;;;;6280116;22;20323;-79
2021/06/25 02:27:12;;;;;;;6.57;3.35;;;16.40;87.90;;;;;;6278964;22;20196;-79
2021/06/25 02:29:41;;;;;;;6.05;3.13;;;16.40;88.10;;;;;;6279404;22;20069;-79
2021/06/25 02:32:10;;;;;;;10.32;4.03;;;16.40;88.30;;;;;;6280204;22;20042;-78
2021/06/25 02:34:38;;;;;;;5.65;3.17;;;16.40;88.30;;;;;;6280281;22;20023;-79
2021/06/25 02:37:05;;;;;;;10.68;3.80;;;16.50;88.30;;;;;;6278591;22;20014;-78
2021/06/25 02:39:33;;;;;;;9.20;3.28;;;16.50;88.10;;;;;;6279990;22;20230;-78
2021/06/25 02:42:00;;;;;;;6.45;3.47;;;16.60;88.30;;;;;;6251126;22;20035;-78
2021/06/25 02:44:32;;;;;;;5.55;3.17;;;16.60;87.80;;;;;;6281256;22;20038;-78
2021/06/25 02:47:00;;;;;;;6.15;3.45;;;16.60;87.70;;;;;;6280060;22;20023;-78
2021/06/25 02:49:31;;;;;;;6.32;2.78;;;16.60;87.70;;;;;;6278577;22;20027;-78
2021/06/25 02:51:58;;;;;;;7.38;2.92;;;16.70;87.00;;;;;;6279393;22;20027;-79
2021/06/25 02:54:25;;;;;;;5.30;3.08;;;16.60;87.10;;;;;;6280437;22;20019;-78
2021/06/25 02:56:53;;;;;;;6.65;3.05;;;16.60;87.10;;;;;;6252278;22;20028;-78
2021/06/25 02:59:20;;;;;;;6.05;3.20;;;16.60;87.20;;;;;;6280416;22;20571;-78
2021/06/25 03:01:47;;;;;;;5.55;3.33;;;16.60;87.40;;;;;;6247246;22;20042;-78
2021/06/25 03:04:14;;;;;;;8.40;3.50;;;16.60;87.30;;;;;;6281457;22;20012;-78
2021/06/25 03:06:43;;;;;;;6.38;3.47;;;16.60;87.40;;;;;;6254130;22;20090;-78
2021/06/25 03:09:10;;;;;;;5.65;3.47;;;16.60;87.30;;;;;;6282284;22;20034;-78
2021/06/25 03:11:38;;;;;;;6.28;3.50;;;16.60;87.40;;;;;;6280547;22;20027;-79
2021/06/25 03:14:05;;;;;;;8.75;4.10;;;16.60;87.30;;;;;;6280961;22;20030;-78
2021/06/25 03:16:33;;;;;;;10.68;3.85;;;16.60;87.60;;;;;;6278338;22;20024;-78
2021/06/25 03:19:00;;;;;;;7.43;3.88;;;16.60;87.40;;;;;;6279084;22;20049;-78
2021/06/25 03:21:33;;;;;;;7.53;4.35;;;16.60;87.20;;;;;;6277647;22;20028;-78
2021/06/25 03:24:02;;;;;;;8.88;4.30;;;16.70;87.40;;;;;;6277260;22;20020;-78
2021/06/25 03:26:29;;;;;;;6.55;3.53;;;16.60;87.10;;;;;;6279303;22;20208;-79
2021/06/25 03:28:57;;;;;;;13.32;3.50;;;16.60;87.30;;;;;;6280618;22;20023;-79
2021/06/25 03:31:24;;;;;;;7.53;3.40;;;16.70;87.50;;;;;;6280283;22;20027;-79
2021/06/25 03:33:51;;;;;;;9.68;3.28;;;16.70;87.30;;;;;;6280699;22;20065;-78
2021/06/25 03:36:19;;;;;;;11.30;4.30;;;16.90;87.10;;;;;;6278488;22;20065;-78
2021/06/25 03:38:47;;;;;;;7.00;3.00;;;16.90;86.60;;;;;;6279472;22;20028;-78
2021/06/25 03:41:15;;;;;;;9.55;3.47;;;16.90;86.60;;;;;;6279755;22;20058;-78
2021/06/25 03:43:43;;;;;;;5.88;3.53;;;16.70;86.80;;;;;;6279593;22;20018;-78
2021/06/25 03:46:11;;;;;;;9.95;4.45;;;16.60;86.70;;;;;;6279205;22;20047;-78
2021/06/25 03:48:38;;;;;;;9.00;3.08;;;16.60;87.40;;;;;;6278148;22;20081;-78
2021/06/25 03:51:06;;;;;;;5.85;3.05;;;16.60;87.60;;;;;;6278919;22;20028;-78
2021/06/25 03:53:33;;;;;;;5.63;2.83;;;16.60;87.30;;;;;;6251406;22;20027;-78
2021/06/25 03:56:12;;;;;;;9.55;3.80;;;16.60;87.80;;;;;;6280222;22;20050;-78
2021/06/25 03:58:43;;;;;;;9.10;4.00;;;16.80;86.90;;;;;;6254709;22;20035;-78
2021/06/25 04:01:11;;;;;;;6.35;3.40;;;16.80;86.60;;;;;;6275308;22;20065;-78
2021/06/25 04:03:41;;;;;;;8.45;3.53;;;16.80;86.70;;;;;;6278255;22;20039;-78
2021/06/25 04:06:09;;;;;;;7.05;3.47;;;16.80;87.00;;;;;;6251552;22;20023;-79
2021/06/25 04:08:37;;;;;;;5.82;2.97;;;16.80;87.10;;;;;;6279231;22;20022;-79
2021/06/25 04:11:05;;;;;;;8.88;3.60;;;16.90;87.00;;;;;;6278777;22;20054;-78
2021/06/25 04:13:37;;;;;;;5.75;3.40;;;17.00;86.40;;;;;;6278089;22;20019;-78
2021/06/25 04:16:06;;;;;;;9.15;3.45;;;17.10;85.80;;;;;;6248003;22;20020;-78
2021/06/25 04:18:33;;;;;;;7.18;3.65;;;17.10;85.60;;;;;;6278149;22;20043;-79
2021/06/25 04:21:00;;;;;;;9.30;3.90;;;17.10;85.70;;;;;;6249919;22;20226;-78
2021/06/25 04:23:30;;;;;;;6.05;3.60;;;17.20;85.90;;;;;;6251799;22;20259;-78
2021/06/25 04:25:57;;;;;;;9.52;3.20;;;17.20;85.70;;;;;;6278409;22;20030;-78
2021/06/25 04:28:25;;;;;;;7.28;3.20;;;17.20;85.70;;;;;;6247651;22;20357;-79
2021/06/25 04:30:52;;;;;;;8.63;3.80;;;17.40;85.00;;;;;;6275608;22;20054;-78
2021/06/25 04:33:22;;;;;;;8.52;3.67;;;17.40;84.70;;;;;;6246687;22;20287;-78
2021/06/25 04:35:50;;;;;;;7.13;4.00;;;17.50;84.60;;;;;;6225689;22;20331;-79
2021/06/25 04:38:18;;;;;;;7.43;4.03;;;17.50;84.70;;;;;;6252054;22;20219;-78
2021/06/25 04:40:46;;;;;;;7.80;3.40;;;17.60;83.70;;;;;;6277189;22;20031;-78
2021/06/25 04:43:16;;;;;;;7.93;3.72;;;17.40;84.50;;;;;;6277121;22;20019;-78
2021/06/25 04:45:44;;;;;;;6.50;4.07;;;17.60;84.30;;;;;;6279221;22;20024;-79
2021/06/25 04:48:13;;;;;;;10.85;3.85;;;17.60;83.70;;;;;;6279833;22;20020;-79
2021/06/25 04:50:48;;;;;;;6.72;3.90;;;17.60;83.70;;;;;;6279606;22;20024;-79
2021/06/25 04:53:15;;;;;;;10.95;4.28;;;17.60;83.70;;;;;;6279641;22;20025;-79
2021/06/25 04:55:44;;;;;;;13.30;4.53;;;17.70;83.20;;;;;;6277249;22;20028;-78
2021/06/25 04:58:14;;;;;;;7.00;4.00;;;17.80;83.50;;;;;;6277087;22;20028;-78
2021/06/25 05:00:42;;;;;;;7.95;4.25;;;17.90;82.70;;;;;;6272676;22;20031;-78
2021/06/25 05:03:10;;;;;;;10.98;4.22;;;18.10;81.90;;;;;;6278932;22;20079;-78
2021/06/25 05:05:39;;;;;;;7.97;4.05;;;18.20;81.80;;;;;;6253652;22;20020;-78
2021/06/25 05:08:09;;;;;;;7.05;3.65;;;18.30;81.80;;;;;;6277310;22;20019;-78
2021/06/25 05:10:37;;;;;;;8.10;3.70;;;18.40;80.70;;;;;;6279454;22;20023;-79
2021/06/25 05:13:04;;;;;;;5.38;3.60;;;18.30;81.30;;;;;;6278851;22;20023;-79
2021/06/25 05:15:34;;;;;;;6.95;3.90;;;18.40;81.30;;;;;;6279080;22;20007;-79
2021/06/25 05:18:12;;;;;;;6.43;3.75;;;18.30;81.80;;;;;;6251678;22;20058;-79
2021/06/25 05:20:39;;;;;;;7.43;3.67;;;18.40;81.60;;;;;;6277940;22;20415;-79
2021/06/25 05:23:09;;;;;;;7.30;3.60;;;18.40;81.50;;;;;;6278165;22;20081;-78
2021/06/25 05:25:36;;;;;;;8.32;3.80;;;18.60;80.60;;;;;;6248990;22;20207;-79
2021/06/25 05:28:04;;;;;;;8.60;4.07;;;18.40;80.20;;;;;;6280900;22;20024;-79
2021/06/25 05:30:31;;;;;;;7.85;3.90;;;18.40;80.60;;;;;;6280567;22;20222;-79
2021/06/25 05:32:59;;;;;;;6.97;3.90;;;18.40;80.00;;;;;;6279038;22;20214;-79
2021/06/25 05:35:30;;;;;;;9.65;4.40;;;18.30;80.90;;;;;;6252480;22;20039;-78
2021/06/25 05:37:58;;;;;;;6.68;3.88;;;18.30;81.10;;;;;;6277886;22;20024;-79
2021/06/25 05:40:27;;;;;;;9.23;4.25;;;18.10;81.30;;;;;;6253669;22;20305;-79
2021/06/25 05:42:54;;;;;;;6.07;3.90;;;18.30;81.30;;;;;;6280697;22;20026;-78
2021/06/25 05:45:23;;;;;;;7.13;4.25;;;18.30;79.90;;;;;;6278080;22;20023;-79
2021/06/25 05:47:50;;;;;;;9.50;4.07;;;18.30;80.10;;;;;;6278902;22;20034;-79
2021/06/25 05:50:19;;;;;;;6.97;4.22;;;18.20;80.10;;;;;;6278537;22;20031;-79
2021/06/25 05:52:46;;;;;;;9.73;4.20;;;18.10;80.40;;;;;;6277034;22;20233;-79
2021/06/25 05:55:14;;;;;;;8.05;4.68;;;18.20;80.60;;;;;;6277239;22;20093;-79
2021/06/25 05:57:45;;;;;;;7.53;4.15;;;18.20;81.20;;;;;;6248119;22;20058;-79
2021/06/25 06:00:13;;;;;;;8.13;4.03;;;18.30;81.10;;;;;;6273139;22;20403;-79
2021/06/25 06:02:41;;;;;;;8.82;4.47;;;18.30;80.50;;;;;;6276800;22;20035;-79
2021/06/25 06:05:09;;;;;;;6.40;4.43;;;18.30;80.90;;;;;;6249900;22;20365;-79
2021/06/25 06:07:37;;;;;;;12.88;4.82;;;18.20;81.00;;;;;;6273230;22;20031;-79
2021/06/25 06:10:05;;;;;;;8.88;4.03;;;18.40;80.70;;;;;;6274759;22;20043;-78
2021/06/25 06:12:32;;;;;;;12.93;5.38;;;18.50;80.60;;;;;;6278998;22;20031;-78
2021/06/25 06:15:01;;;;;;;8.07;3.83;;;18.90;79.40;;;;;;6277651;22;20219;-79
2021/06/25 06:17:38;;;;;;;9.98;4.80;;;18.70;79.40;;;;;;6277563;22;20027;-78
2021/06/25 06:20:07;;;;;;;11.30;4.72;;;18.70;79.50;;;;;;6274632;22;20050;-78
2021/06/25 06:33:38;;;;;;;7.30;3.80;;;19.30;78.10;;;;;;6274049;22;20334;-79
2021/06/25 06:36:14;;;;;;;8.68;4.32;;;19.40;77.30;;;;;;6249281;22;20346;-80
2021/06/25 06:38:43;;;;;;;8.77;4.75;;;19.60;76.80;;;;;;6277644;22;20196;-80
2021/06/25 06:41:10;;;;;;;11.07;4.68;;;19.60;76.40;;;;;;6277368;22;20034;-79
2021/06/25 06:43:39;;;;;;;8.77;4.40;;;19.60;76.40;;;;;;6281565;22;20023;-80
2021/06/25 06:46:09;;;;;;;10.53;4.37;;;19.50;76.70;;;;;;6279128;22;20023;-78
2021/06/25 06:48:36;;;;;;;;;;;19.30;77.30;;;;;;6281085;22;20034;-79
2021/06/25 06:51:05;;;;;;;8.32;4.22;;;19.40;77.30;;;;;;6281085;22;19979;-78
2021/06/25 06:53:32;;;;;;;7.32;4.43;;;19.40;77.40;;;;;;6251033;22;20027;-79
2021/06/25 06:56:00;;;;;;;7.43;3.55;;;19.30;76.90;;;;;;6257198;22;20024;-78
2021/06/25 06:58:28;;;;;;;7.95;4.20;;;19.20;77.50;;;;;;6256893;22;20265;-79
2021/06/25 07:00:55;;;;;;;8.52;4.50;;;19.00;78.30;;;;;;6276269;22;20057;-78
2021/06/25 07:03:24;;;;;;;6.68;4.63;;;19.20;77.80;;;;;;6250870;23;20032;-78
2021/06/25 07:05:51;;;;;;;13.27;4.35;;;19.30;77.30;;;;;;6252141;23;20019;-78
2021/06/25 07:08:19;;;;;;;6.88;3.78;;;19.40;76.90;;;;;;6250139;23;20020;-78
2021/06/25 07:10:46;;;;;;;7.07;4.30;;;19.60;76.60;;;;;;6252713;23;20016;-79
2021/06/25 07:13:14;;;;;;;8.32;3.97;;;19.60;76.80;;;;;;6252172;23;20028;-78
2021/06/25 07:15:42;;;;;;;8.35;4.15;;;19.80;76.50;;;;;;6250654;23;20083;-78
2021/06/25 07:18:09;;;;;;;9.48;3.97;;;19.60;75.20;;;;;;6247901;23;20071;-78
2021/06/25 07:20:38;;;;;;;7.25;3.30;;;19.20;75.40;;;;;;6251885;23;20261;-78
2021/06/25 07:23:06;;;;;;;7.13;3.83;;;19.40;76.00;;;;;;6251323;23;20262;-79
2021/06/25 07:25:33;;;;;;;6.93;3.60;;;19.30;75.40;;;;;;6253732;23;20012;-79
2021/06/25 07:28:00;;;;;;;7.78;4.22;;;19.30;76.00;;;;;;6250900;23;20337;-79
2021/06/25 07:30:43;;;;;;;;;;;19.40;75.80;;;;;;6251418;23;20046;-77
2021/06/25 07:33:10;;;;;;;;;;;19.30;75.40;;;;;;6253143;23;19927;-80
2021/06/25 07:35:39;;;;;;;8.50;3.60;;;19.50;74.80;;;;;;6249826;23;19919;-79
2021/06/25 07:38:06;;;;;;;7.10;3.30;;;19.90;73.80;;;;;;6250763;23;20032;-79
2021/06/25 07:40:34;;;;;;;6.20;3.42;;;19.80;74.30;;;;;;6247892;23;20020;-79
2021/06/25 07:43:02;;;;;;;7.97;3.60;;;20.10;73.50;;;;;;6246422;23;20323;-80
2021/06/25 07:45:36;;;;;;;5.88;3.60;;;20.30;72.90;;;;;;6249576;22;20020;-78
2021/06/25 07:48:03;;;;;;;7.70;3.60;;;20.30;72.40;;;;;;6246519;23;20091;-80
2021/06/25 07:50:30;;;;;;;7.50;3.67;;;20.30;71.70;;;;;;6247863;23;20055;-80
2021/06/25 07:52:59;;;;;;;8.38;3.90;;;20.50;71.20;;;;;;6247791;23;20080;-79
2021/06/25 07:55:26;;;;;;;6.20;3.38;;;20.70;70.60;;;;;;6247922;23;20020;-78
2021/06/25 07:57:53;;;;;;;7.93;3.75;;;21.10;70.90;;;;;;6247377;23;20027;-79
2021/06/25 08:00:21;;;;;;;5.43;3.42;;;21.10;69.90;;;;;;6243158;23;20237;-79
2021/06/25 08:02:48;;;;;;;9.25;3.60;;;21.50;68.90;;;;;;6251673;23;20188;-78
2021/06/25 08:05:16;;;;;;;5.50;3.17;;;21.10;69.60;;;;;;6271043;22;20032;-79
2021/06/25 08:07:43;;;;;;;5.95;3.30;;;21.10;69.70;;;;;;6250356;22;20074;-78
2021/06/25 08:10:12;;;;;;;6.10;3.70;;;21.10;70.60;;;;;;6248422;23;20032;-79
2021/06/25 08:12:39;;;;;;;7.13;3.85;;;21.10;70.00;;;;;;6248384;23;20027;-77
2021/06/25 08:15:07;;;;;;;5.30;3.47;;;21.40;69.00;;;;;;6248198;23;20027;-77
2021/06/25 08:17:37;;;;;;;6.80;4.18;;;21.60;68.30;;;;;;6247035;23;20028;-78
2021/06/25 08:20:05;;;;;;;7.03;4.18;;;21.10;69.20;;;;;;6250896;23;20017;-79
2021/06/25 08:22:34;;;;;;;8.45;4.28;;;21.30;69.50;;;;;;6247474;23;20074;-79
2021/06/25 08:25:01;;;;;;;7.43;3.75;;;21.50;68.10;;;;;;6248971;23;20027;-78
2021/06/25 08:27:31;;;;;;;7.05;3.95;;;21.50;68.00;;;;;;6273063;22;20071;-78
2021/06/25 08:30:00;;;;;;;10.70;4.47;;;21.60;67.90;;;;;;6250110;23;20074;-78
2021/06/25 08:32:30;;;;;;;6.22;4.20;;;21.30;68.50;;;;;;6249492;22;20308;-78
2021/06/25 08:34:58;;;;;;;6.20;3.70;;;21.60;68.30;;;;;;6250411;23;20030;-78
2021/06/25 08:37:25;;;;;;;10.35;3.70;;;22.00;67.00;;;;;;6250578;23;20024;-78
2021/06/25 08:39:52;;;;;;;7.80;4.00;;;21.70;68.90;;;;;;6248555;23;20028;-78
2021/06/25 08:42:20;;;;;;;6.47;3.83;;;21.60;68.60;;;;;;6252506;22;20204;-78
2021/06/25 08:44:49;;;;;;;6.10;3.80;;;21.50;68.30;;;;;;6254524;22;20018;-78
2021/06/25 08:47:16;;;;;;;5.55;3.85;;;21.60;67.50;;;;;;6252410;23;20044;-79
2021/06/25 08:49:48;;;;;;;6.25;3.72;;;21.50;68.10;;;;;;6251304;23;20032;-79
2021/06/25 08:52:16;;;;;;;8.70;3.90;;;21.90;66.50;;;;;;6253924;22;20030;-79
2021/06/25 08:54:44;;;;;;;6.60;3.28;;;22.10;65.40;;;;;;6252016;23;20020;-78
2021/06/25 08:57:12;;;;;;;5.35;3.15;;;21.70;66.10;;;;;;6253795;22;20203;-79
2021/06/25 08:59:39;;;;;;;9.25;4.75;;;21.40;67.70;;;;;;6251410;22;20024;-78
2021/06/25 09:02:08;;;;;;;9.85;4.32;;;21.40;67.60;;;;;;6250261;22;20054;-79
2021/06/25 09:04:40;;;;;;;7.68;4.07;;;21.90;66.60;;;;;;6276253;22;20057;-78
2021/06/25 09:07:09;;;;;;;8.70;4.50;;;22.00;66.00;;;;;;6256557;22;20275;-78
2021/06/25 09:09:41;;;;;;;12.63;4.70;;;22.20;64.70;;;;;;6283431;22;20023;-78
2021/06/25 09:12:12;;;;;;;6.45;3.83;;;22.40;64.80;;;;;;6282157;22;20024;-79
2021/06/25 09:15:00;;;;;;;7.80;4.18;;;22.40;64.10;;;;;;6282181;22;20038;-78
2021/06/25 09:17:35;;;;;;;5.93;3.80;;;22.80;63.40;;;;;;6285845;22;20023;-78
2021/06/25 09:20:05;;;;;;;7.53;3.58;;;23.20;62.00;;;;;;6284196;22;20031;-78
2021/06/25 09:22:48;;;;;;;6.50;3.63;;;23.30;61.10;;;;;;6281300;22;20261;-79
2021/06/25 09:25:15;;;;;;;6.35;3.30;;;23.30;60.40;;;;;;6281410;22;20027;-79
2021/06/25 09:27:43;;;;;;;7.63;4.10;;;23.20;61.00;;;;;;6259868;22;20034;-78
2021/06/25 09:30:13;;;;;;;6.47;3.58;;;23.20;60.40;;;;;;6282057;22;20030;-78
2021/06/25 09:32:43;;;;;;;8.95;3.92;;;22.80;60.50;;;;;;6252230;22;20230;-78
2021/06/25 09:35:19;;;;;;;5.82;3.60;;;22.80;62.20;;;;;;6252759;22;20086;-78
2021/06/25 09:37:48;;;;;;;5.07;3.17;;;23.10;60.60;;;;;;6278220;22;20261;-78
2021/06/25 09:40:19;;;;;;;36.42;4.75;;;23.20;60.10;;;;;;6279186;22;20027;-78
2021/06/25 09:43:08;;;;;;;8.38;3.55;;;23.20;59.60;;;;;;6251341;22;20224;-78
2021/06/25 09:45:47;;;;;;;8.80;3.87;;;23.20;60.50;;;;;;6278181;22;20073;-77
2021/06/25 09:48:16;;;;;;;7.35;4.45;;;23.40;61.70;;;;;;6282403;22;20394;-78
2021/06/25 09:50:45;;;;;;;9.67;4.77;;;23.20;61.00;;;;;;6252882;22;20050;-78
2021/06/25 09:53:12;;;;;;;7.33;4.23;;;23.70;59.70;;;;;;6283007;22;20019;-78
2021/06/25 09:55:51;;;;;;;9.82;4.63;;;23.50;60.10;;;;;;6254884;22;20015;-79
2021/06/25 10:01:24;;;;;;;7.60;4.40;;;23.10;59.60;;;;;;6272342;22;20236;-79
2021/06/25 10:03:53;;;;;;;7.32;4.38;;;23.50;58.60;;;;;;6279323;22;20027;-79
2021/06/25 10:06:22;;;;;;;6.82;4.15;;;23.20;59.90;;;;;;6280403;22;20046;-79
2021/06/25 10:08:51;;;;;;;6.75;4.25;;;23.10;60.70;;;;;;6256948;22;20043;-77
2021/06/25 10:11:19;;;;;;;7.72;4.50;;;22.90;61.60;;;;;;6284311;22;20016;-79
2021/06/25 10:13:48;;;;;;;9.63;4.40;;;22.80;61.80;;;;;;6280673;22;20061;-76
2021/06/25 10:16:16;;;;;;;11.43;4.67;;;22.30;63.00;;;;;;6253067;22;20030;-76
2021/06/25 10:18:47;;;;;;;6.18;4.20;;;22.30;63.60;;;;;;6254094;22;20652;-77
2021/06/25 10:21:20;;;;;;;8.15;4.10;;;22.50;63.60;;;;;;6281746;22;20016;-77
2021/06/25 10:23:49;;;;;;;7.85;4.20;;;23.10;61.50;;;;;;6282198;22;20031;-78
2021/06/25 10:26:17;;;;;;;8.85;4.85;;;23.70;59.40;;;;;;6284848;22;20066;-77
2021/06/25 10:28:47;;;;;;;10.55;4.75;;;23.60;58.70;;;;;;6281464;22;20023;-77
2021/06/25 10:31:16;;;;;;;8.77;4.35;;;23.90;58.70;;;;;;6281985;22;20034;-78
2021/06/25 10:33:45;;;;;;;6.10;3.67;;;23.90;57.80;;;;;;6255474;22;20107;-79
2021/06/25 10:36:16;;;;;;;7.55;4.07;;;24.10;58.00;;;;;;6282218;22;20012;-79
2021/06/25 10:38:46;;;;;;;6.35;4.05;;;24.40;57.50;;;;;;6283940;22;20016;-79
2021/06/25 10:41:18;;;;;;;6.43;4.22;;;24.40;56.50;;;;;;6255398;22;20398;-79
2021/06/25 10:43:52;;;;;;;8.90;4.18;;;24.60;56.10;;;;;;6257447;22;20133;-78
2021/06/25 10:46:37;;;;;;;6.22;3.90;;;24.30;56.20;;;;;;6287520;22;20277;-78
2021/06/25 10:49:09;;;;;;;11.25;3.90;;;24.00;57.10;;;;;;6283053;22;20023;-79
2021/06/25 10:51:38;;;;;;;6.03;3.63;;;24.30;56.20;;;;;;6256315;22;20320;-79
2021/06/25 10:54:13;;;;;;;6.32;3.35;;;25.60;52.80;;;;;;6284523;22;20068;-79
2021/06/25 10:56:43;;;;;;;7.18;3.70;;;25.70;53.20;;;;;;6283349;22;20030;-79
2021/06/25 10:59:22;;;;;;;;;;;27.00;49.10;;;;;;6255825;22;20383;-78
2021/06/25 11:01:54;;;;;;;6.85;4.05;;;28.10;49.00;;;;;;6278135;22;19919;-78
2021/06/25 11:04:39;;;;;;;5.70;3.10;;;28.70;47.00;;;;;;6281915;22;20023;-79
2021/06/25 11:07:09;;;;;;;5.97;3.40;;;31.40;41.60;;;;;;6282308;22;20020;-77
2021/06/25 11:09:57;;;;;;;5.05;3.38;;;31.90;38.30;;;;;;6255972;22;20091;-76
2021/06/25 11:12:28;;;;;;;11.23;3.88;;;29.30;42.60;;;;;;6282056;22;20061;-77
2021/06/25 11:14:56;;;;;;;8.23;3.88;;;28.60;43.70;;;;;;6254906;22;20019;-77
2021/06/25 11:17:50;;;;;;;5.20;3.63;;;28.50;44.30;;;;;;6278664;22;20027;-77
2021/06/25 11:20:22;;;;;;;5.93;3.42;;;29.30;43.60;;;;;;6253763;22;20027;-77
2021/06/25 11:23:07;;;;;;;8.98;3.88;;;29.90;41.20;;;;;;6281333;22;20026;-76
2021/06/25 11:25:42;;;;;;;6.68;3.80;;;29.60;39.50;;;;;;6255458;22;20153;-77
2021/06/25 11:28:19;;;;;;;6.40;3.40;;;29.70;38.00;;;;;;6281367;22;20023;-77
2021/06/25 11:31:22;;;;;;;5.68;3.22;;;29.70;38.00;;;;;;6285074;22;20024;-77
2021/06/25 11:33:59;;;;;;;8.20;4.65;;;29.40;39.20;;;;;;6282152;22;20133;-77
2021/06/25 11:36:41;;;;;;;8.15;4.88;;;28.40;44.10;;;;;;6278052;22;20051;-78
2021/06/25 11:39:30;;;;;;;7.85;5.63;;;27.80;45.90;;;;;;6280448;22;20115;-78
2021/06/25 11:42:00;;;;;;;8.95;4.95;;;26.70;48.70;;;;;;6277369;22;20042;-78
2021/06/25 11:44:32;;;;;;;9.27;5.40;;;26.60;49.40;;;;;;6280040;22;20062;-79
2021/06/25 11:47:06;;;;;;;8.15;4.75;;;27.30;48.30;;;;;;6280850;22;20214;-75
2021/06/25 11:49:40;;;;;;;9.10;4.80;;;29.00;44.70;;;;;;6281550;22;20023;-77
2021/06/25 11:52:10;;;;;;;8.98;4.47;;;30.90;42.00;;;;;;6281098;22;20024;-77
2021/06/25 11:54:39;;;;;;;7.95;5.00;;;32.30;36.70;;;;;;6281764;22;20023;-77
2021/06/25 11:57:19;;;;;;;7.85;4.22;;;33.30;33.60;;;;;;6279299;22;20141;-78
2021/06/25 12:00:10;;;;;;;6.90;4.13;;;32.30;35.50;;;;;;6277522;22;20032;-75
2021/06/25 12:02:45;;;;;;;8.30;4.35;;;34.20;32.70;;;;;;6275954;22;20185;-76
2021/06/25 12:05:13;;;;;;;7.38;4.95;;;34.30;31.40;;;;;;6251643;22;20035;-78
2021/06/25 12:07:41;;;;;;;7.20;4.30;;;34.40;31.00;;;;;;6251431;22;20027;-78
2021/06/25 12:10:10;;;;;;;21.98;11.95;;;35.30;30.70;;;;;;6281483;22;20071;-77
2021/06/25 12:12:41;;;;;;;6.60;4.03;;;35.50;29.00;;;;;;6283692;22;20069;-79
2021/06/25 12:15:11;;;;;;;9.40;4.80;;;34.90;30.30;;;;;;6281808;22;20034;-78
2021/06/25 12:17:43;;;;;;;5.15;3.10;;;35.30;29.00;;;;;;6282258;22;20091;-78
2021/06/25 12:20:18;;;;;;;7.82;3.78;;;34.80;30.20;;;;;;6280786;22;20069;-79
2021/06/25 12:22:50;;;;;;;7.75;4.13;;;36.30;28.40;;;;;;6281563;22;20028;-78
2021/06/25 12:25:34;;;;;;;10.32;4.20;;;36.00;28.10;;;;;;6283003;22;20023;-78
2021/06/25 12:28:09;;;;;;;9.32;4.50;;;33.50;30.70;;;;;;6284562;22;20046;-77
2021/06/25 12:30:39;;;;;;;8.38;4.22;;;30.70;34.40;;;;;;6283656;22;20023;-78
2021/06/25 12:33:08;;;;;;;7.78;4.50;;;29.60;36.40;;;;;;6283695;22;20214;-78
2021/06/25 12:35:36;;;;;;;;;;;28.50;39.80;;;;;;6258898;22;20026;-79
2021/06/25 12:38:06;;;;;;;9.05;4.15;;;29.70;38.20;;;;;;6282722;22;19925;-78
2021/06/25 12:40:53;;;;;;;5.78;3.88;;;31.40;37.00;;;;;;6282550;22;20030;-78
2021/06/25 12:43:27;;;;;;;7.38;3.83;;;32.20;34.60;;;;;;6282828;22;20380;-78
2021/06/25 12:45:57;;;;;;;9.13;3.97;;;30.70;35.70;;;;;;6282185;22;20012;-78
2021/06/25 12:48:26;;;;;;;10.05;4.32;;;30.20;36.40;;;;;;6256776;22;20032;-78
2021/06/25 12:51:03;;;;;;;7.75;4.28;;;29.90;37.60;;;;;;6258955;22;20020;-79
2021/06/25 12:53:32;;;;;;;7.53;3.85;;;29.10;39.30;;;;;;6286692;22;20016;-78
2021/06/25 12:56:00;;;;;;;;;;;29.60;38.40;;;;;;6286076;22;20024;-78
2021/06/25 12:58:32;;;;;;;8.75;4.60;;;29.00;38.70;;;;;;6286417;22;19912;-79
2021/06/25 13:01:04;;;;;;;6.55;4.63;;;28.80;39.80;;;;;;6280266;22;20399;-79
2021/06/25 13:03:32;;;;;;;8.48;5.10;;;28.60;40.00;;;;;;6289125;22;20015;-79
2021/06/25 13:06:00;;;;;;;5.63;4.03;;;28.40;40.60;;;;;;6259551;22;20341;-79
2021/06/25 13:08:30;;;;;;;7.53;3.92;;;28.50;41.90;;;;;;6257486;22;20019;-77
2021/06/25 13:10:59;;;;;;;8.35;3.67;;;28.70;38.80;;;;;;6283131;22;20023;-78
2021/06/25 13:13:31;;;;;;;7.95;4.38;;;30.50;37.30;;;;;;6286346;22;20015;-79
2021/06/25 13:16:00;;;;;;;8.35;4.00;;;32.20;32.30;;;;;;6256142;22;20050;-77